createdAt,value
2022-07-28T00:00:50.009Z,14.11
2022-07-28T00:01:50.079Z,14.28
2022-07-28T00:02:50.026Z,14.28
2022-07-28T00:03:50.022Z,13.83
2022-07-28T00:04:50.027Z,13.67
2022-07-28T00:05:50.138Z,13.56
2022-07-28T00:06:50.016Z,13.39
2022-07-28T00:07:50.020Z,13.39
2022-07-28T00:08:50.019Z,13.22
2022-07-28T00:09:50.021Z,12.78
2022-07-28T00:10:50.010Z,12.78
2022-07-28T00:11:50.323Z,12.78
2022-07-28T00:12:50.018Z,12.94
2022-07-28T00:13:50.016Z,12.94
2022-07-28T00:14:50.013Z,13.11
2022-07-28T00:15:50.061Z,13.11
2022-07-28T00:16:50.057Z,13.39
2022-07-28T00:17:50.028Z,13.39
2022-07-28T00:18:50.025Z,13.39
2022-07-28T00:19:50.024Z,13.39
2022-07-28T00:20:50.026Z,13.39
2022-07-28T00:21:50.028Z,13.39
2022-07-28T00:22:50.025Z,13.39
2022-07-28T00:23:50.027Z,13.67
2022-07-28T00:24:50.027Z,13.22
2022-07-28T00:25:50.031Z,13.67
2022-07-28T00:26:50.026Z,13.56
2022-07-28T00:27:50.029Z,13.83
2022-07-28T00:28:50.036Z,13.83
2022-07-28T00:29:51.146Z,13.83
2022-07-28T00:30:50.029Z,13.83
2022-07-28T00:31:50.122Z,13.83
2022-07-28T00:32:50.029Z,13.83
2022-07-28T00:33:50.028Z,13.83
2022-07-28T00:34:50.034Z,13.83
2022-07-28T00:35:50.035Z,13.83
2022-07-28T00:36:50.032Z,13.56
2022-07-28T00:37:50.036Z,13.67
2022-07-28T00:38:50.032Z,13.83
2022-07-28T00:39:50.036Z,13.83
2022-07-28T00:40:50.033Z,14
2022-07-28T00:41:50.043Z,14.11
2022-07-28T00:42:50.031Z,14.28
2022-07-28T00:43:50.059Z,14
2022-07-28T00:44:50.037Z,14.11
2022-07-28T00:45:50.041Z,14.28
2022-07-28T00:46:50.105Z,14.28
2022-07-28T00:47:50.038Z,14.28
2022-07-28T00:48:50.076Z,14.28
2022-07-28T00:49:50.044Z,14.28
2022-07-28T00:50:50.042Z,14.44
2022-07-28T00:51:50.044Z,14.44
2022-07-28T00:52:50.038Z,14.28
2022-07-28T00:53:50.047Z,14.44
2022-07-28T00:54:50.037Z,14.28
2022-07-28T00:56:02.884Z,14.44
2022-07-28T00:56:50.037Z,14.11
2022-07-28T00:57:50.042Z,14.28
2022-07-28T00:58:50.046Z,14.28
2022-07-28T00:59:50.051Z,14.61
2022-07-28T01:00:50.050Z,14.44
2022-07-28T01:01:50.191Z,14.61
2022-07-28T01:02:50.104Z,14.28
2022-07-28T01:03:50.049Z,13.83
2022-07-28T01:04:50.057Z,13.83
2022-07-28T01:05:50.056Z,13.83
2022-07-28T01:06:50.048Z,13.67
2022-07-28T01:07:50.060Z,13.83
2022-07-28T01:08:50.056Z,13.83
2022-07-28T01:09:50.063Z,13.39
2022-07-28T01:10:50.064Z,13.39
2022-07-28T01:11:50.071Z,13.11
2022-07-28T01:12:50.071Z,13.22
2022-07-28T01:13:50.068Z,13.11
2022-07-28T01:14:50.066Z,12.78
2022-07-28T01:15:50.155Z,13.22
2022-07-28T01:16:50.074Z,13.39
2022-07-28T01:17:50.070Z,13.39
2022-07-28T01:18:50.083Z,13.39
2022-07-28T01:19:50.081Z,12.94
2022-07-28T01:20:50.087Z,13.39
2022-07-28T01:21:50.081Z,13.39
2022-07-28T01:22:50.082Z,13.11
2022-07-28T01:23:50.076Z,13.22
2022-07-28T01:24:50.078Z,12.94
2022-07-28T01:25:50.080Z,13.39
2022-07-28T01:26:50.079Z,12.94
2022-07-28T01:27:50.090Z,13.56
2022-07-28T01:28:50.085Z,13.39
2022-07-28T01:29:50.110Z,13.56
2022-07-28T01:30:50.197Z,13.39
2022-07-28T01:31:50.091Z,13.39
2022-07-28T01:32:50.102Z,13.39
2022-07-28T01:33:50.092Z,13.39
2022-07-28T01:34:50.095Z,13.67
2022-07-28T01:35:50.106Z,13.83
2022-07-28T01:36:50.099Z,13.83
2022-07-28T01:37:50.110Z,13.67
2022-07-28T01:38:50.110Z,13.83
2022-07-28T01:39:50.107Z,13.83
2022-07-28T01:40:50.358Z,13.67
2022-07-28T01:41:50.113Z,13.56
2022-07-28T01:42:50.118Z,13.67
2022-07-28T01:43:50.122Z,13.67
2022-07-28T01:44:50.123Z,13.56
2022-07-28T01:45:50.125Z,14
2022-07-28T01:46:50.195Z,13.83
2022-07-28T01:47:50.120Z,14
2022-07-28T01:48:50.171Z,13.83
2022-07-28T01:49:50.123Z,13.83
2022-07-28T01:50:50.132Z,13.83
2022-07-28T01:51:50.137Z,14.11
2022-07-28T01:52:50.132Z,13.56
2022-07-28T01:53:50.132Z,14
2022-07-28T01:54:50.133Z,14.11
2022-07-28T01:55:50.139Z,14.11
2022-07-28T01:56:50.135Z,14.11
2022-07-28T01:57:50.139Z,14.28
2022-07-28T01:58:50.135Z,14.28
2022-07-28T01:59:50.149Z,14.44
2022-07-28T02:00:50.146Z,14.11
2022-07-28T02:01:50.193Z,14.44
2022-07-28T02:02:50.157Z,14.61
2022-07-28T02:03:50.155Z,14.78
2022-07-28T02:04:50.213Z,14.28
2022-07-28T02:05:50.162Z,14.61
2022-07-28T02:06:50.153Z,14.78
2022-07-28T02:07:50.156Z,14.44
2022-07-28T02:08:50.155Z,14.44
2022-07-28T02:09:50.158Z,14.44
2022-07-28T02:10:50.161Z,14.44
2022-07-28T02:11:50.157Z,14.28
2022-07-28T02:12:50.156Z,14.44
2022-07-28T02:13:50.156Z,14.44
2022-07-28T02:14:50.162Z,14.28
2022-07-28T02:15:50.180Z,14.28
2022-07-28T02:16:50.166Z,14.28
2022-07-28T02:17:50.159Z,14.28
2022-07-28T02:18:50.163Z,14.28
2022-07-28T02:19:50.161Z,14.11
2022-07-28T02:20:50.162Z,13.83
2022-07-28T02:21:50.168Z,14
2022-07-28T02:22:51.198Z,14
2022-07-28T02:23:50.171Z,13.83
2022-07-28T02:24:50.177Z,13.67
2022-07-28T02:25:50.184Z,13.67
2022-07-28T02:26:50.180Z,13.83
2022-07-28T02:27:50.182Z,13.67
2022-07-28T02:28:50.179Z,13.56
2022-07-28T02:29:51.555Z,13.39
2022-07-28T02:30:50.193Z,13.67
2022-07-28T02:31:50.182Z,13.39
2022-07-28T02:32:50.180Z,13.56
2022-07-28T02:33:58.285Z,13.56
2022-07-28T02:34:50.191Z,13.67
2022-07-28T02:35:50.193Z,13.56
2022-07-28T02:36:50.190Z,13.56
2022-07-28T02:37:50.191Z,13.39
2022-07-28T02:38:50.192Z,13.56
2022-07-28T02:39:55.246Z,13.39
2022-07-28T02:40:50.192Z,13.56
2022-07-28T02:41:50.193Z,13.39
2022-07-28T02:42:50.195Z,13.56
2022-07-28T02:43:50.750Z,13.22
2022-07-28T02:44:50.206Z,13.56
2022-07-28T02:45:50.223Z,13.56
2022-07-28T02:46:50.201Z,13.39
2022-07-28T02:47:50.201Z,13.22
2022-07-28T02:48:50.268Z,13.83
2022-07-28T02:49:50.212Z,13.56
2022-07-28T02:50:50.204Z,13.56
2022-07-28T02:51:50.213Z,13.67
2022-07-28T02:52:50.216Z,13.56
2022-07-28T02:53:50.224Z,13.83
2022-07-28T02:54:50.212Z,13.56
2022-07-28T02:55:50.223Z,13.67
2022-07-28T02:56:53.053Z,13.56
2022-07-28T02:57:54.718Z,13.67
2022-07-28T02:58:50.215Z,13.39
2022-07-28T02:59:50.228Z,13.67
2022-07-28T03:00:50.225Z,13.56
2022-07-28T03:01:50.286Z,13.56
2022-07-28T03:02:50.221Z,13.56
2022-07-28T03:03:50.221Z,13.56
2022-07-28T03:04:50.269Z,13.67
2022-07-28T03:05:50.219Z,13.56
2022-07-28T03:06:50.217Z,13.56
2022-07-28T03:07:50.921Z,13.56
2022-07-28T03:08:50.231Z,13.22
2022-07-28T03:09:50.229Z,13.22
2022-07-28T03:10:50.228Z,13.39
2022-07-28T03:11:50.230Z,13.39
2022-07-28T03:12:50.243Z,12.94
2022-07-28T03:13:50.237Z,13.67
2022-07-28T03:14:50.239Z,13.67
2022-07-28T03:15:50.239Z,13.39
2022-07-28T03:16:55.199Z,13.56
2022-07-28T03:17:50.241Z,13.67
2022-07-28T03:18:50.244Z,13.67
2022-07-28T03:19:50.253Z,13.67
2022-07-28T03:20:50.246Z,13.83
2022-07-28T03:21:50.244Z,13.83
2022-07-28T03:22:50.302Z,13.67
2022-07-28T03:23:50.255Z,13.39
2022-07-28T03:24:50.256Z,13.56
2022-07-28T03:25:50.266Z,13.56
2022-07-28T03:26:50.249Z,13.39
2022-07-28T03:27:50.269Z,13.67
2022-07-28T03:28:50.270Z,13.67
2022-07-28T03:29:50.271Z,13.83
2022-07-28T03:30:50.332Z,14
2022-07-28T03:31:50.265Z,13.83
2022-07-28T03:32:50.266Z,13.67
2022-07-28T03:33:50.268Z,14
2022-07-28T03:34:50.269Z,13.83
2022-07-28T03:35:50.270Z,13.83
2022-07-28T03:36:50.276Z,13.67
2022-07-28T03:37:50.278Z,13.39
2022-07-28T03:38:50.266Z,13.83
2022-07-28T03:39:50.265Z,13.83
2022-07-28T03:40:50.301Z,13.83
2022-07-28T03:41:50.280Z,13.83
2022-07-28T03:42:50.281Z,14
2022-07-28T03:43:50.283Z,13.83
2022-07-28T03:44:50.284Z,14
2022-07-28T03:45:50.342Z,13.83
2022-07-28T03:46:50.284Z,13.83
2022-07-28T03:47:50.288Z,13.67
2022-07-28T03:48:50.313Z,13.83
2022-07-28T03:49:50.285Z,13.67
2022-07-28T03:50:50.286Z,13.83
2022-07-28T03:51:50.292Z,13.83
2022-07-28T03:52:50.293Z,13.83
2022-07-28T03:53:50.292Z,13.67
2022-07-28T03:54:50.294Z,13.67
2022-07-28T03:55:50.294Z,13.83
2022-07-28T03:56:50.296Z,13.83
2022-07-28T03:57:50.299Z,13.83
2022-07-28T03:58:50.292Z,13.83
2022-07-28T03:59:50.293Z,13.83
2022-07-28T04:00:50.324Z,13.83
2022-07-28T04:01:50.367Z,13.83
2022-07-28T04:02:50.379Z,13.83
2022-07-28T04:03:50.305Z,13.83
2022-07-28T04:04:50.305Z,13.83
2022-07-28T04:05:50.303Z,13.83
2022-07-28T04:06:50.304Z,13.83
2022-07-28T04:07:50.311Z,13.83
2022-07-28T04:08:50.308Z,13.83
2022-07-28T04:09:50.315Z,13.83
2022-07-28T04:10:50.298Z,13.83
2022-07-28T04:11:50.313Z,13.83
2022-07-28T04:12:50.311Z,13.83
2022-07-28T04:13:50.315Z,14
2022-07-28T04:14:50.315Z,13.83
2022-07-28T04:15:50.308Z,13.39
2022-07-28T04:16:50.345Z,13.83
2022-07-28T04:17:50.317Z,13.83
2022-07-28T04:18:50.313Z,13.67
2022-07-28T04:19:50.314Z,14
2022-07-28T04:20:50.317Z,14
2022-07-28T04:21:50.319Z,14
2022-07-28T04:22:50.321Z,14.11
2022-07-28T04:23:50.327Z,14.11
2022-07-28T04:24:50.329Z,14.11
2022-07-28T04:25:50.327Z,14.11
2022-07-28T04:26:50.326Z,14
2022-07-28T04:27:50.325Z,14.28
2022-07-28T04:28:50.322Z,14
2022-07-28T04:29:50.333Z,14.28
2022-07-28T04:30:50.395Z,14.28
2022-07-28T04:31:50.327Z,14.28
2022-07-28T04:32:50.327Z,14.11
2022-07-28T04:33:50.327Z,14.28
2022-07-28T04:34:50.333Z,14.28
2022-07-28T04:35:50.328Z,14.28
2022-07-28T04:36:50.331Z,14.28
2022-07-28T04:37:50.330Z,14.28
2022-07-28T04:38:50.334Z,14.44
2022-07-28T04:39:50.334Z,14.28
2022-07-28T04:40:50.339Z,14.28
2022-07-28T04:41:50.342Z,14.44
2022-07-28T04:42:50.344Z,14.61
2022-07-28T04:43:50.352Z,14.78
2022-07-28T04:44:50.342Z,14.61
2022-07-28T04:45:53.654Z,14.44
2022-07-28T04:46:50.345Z,14.44
2022-07-28T04:47:50.339Z,14.78
2022-07-28T04:48:51.384Z,14.78
2022-07-28T04:49:50.346Z,14.78
2022-07-28T04:50:50.352Z,14.61
2022-07-28T04:51:50.356Z,14.44
2022-07-28T04:52:50.349Z,14.44
2022-07-28T04:53:50.346Z,14.44
2022-07-28T04:54:50.347Z,14.78
2022-07-28T04:55:50.349Z,14.78
2022-07-28T04:56:50.347Z,14.78
2022-07-28T04:57:50.351Z,14.89
2022-07-28T04:58:50.355Z,14.61
2022-07-28T04:59:50.357Z,14.78
2022-07-28T05:00:50.695Z,14.78
2022-07-28T05:01:50.409Z,14.89
2022-07-28T05:02:50.356Z,15.06
2022-07-28T05:03:50.358Z,14.89
2022-07-28T05:04:50.394Z,14.78
2022-07-28T05:05:54.746Z,14.78
2022-07-28T05:06:50.349Z,14.61
2022-07-28T05:07:50.372Z,14.44
2022-07-28T05:08:50.352Z,14.61
2022-07-28T05:09:50.362Z,14.44
2022-07-28T05:10:50.352Z,14.28
2022-07-28T05:11:50.347Z,14.28
2022-07-28T05:12:50.362Z,14.28
2022-07-28T05:13:50.352Z,14.28
2022-07-28T05:14:50.358Z,14.28
2022-07-28T05:15:50.358Z,14.28
2022-07-28T05:16:50.409Z,14.28
2022-07-28T05:17:50.382Z,14.28
2022-07-28T05:18:50.359Z,14.28
2022-07-28T05:19:50.353Z,14.44
2022-07-28T05:20:50.360Z,14.61
2022-07-28T05:21:50.355Z,14.44
2022-07-28T05:22:50.360Z,14.44
2022-07-28T05:23:50.353Z,14.28
2022-07-28T05:24:50.373Z,14.28
2022-07-28T05:25:50.355Z,14.11
2022-07-28T05:26:50.353Z,14.44
2022-07-28T05:27:50.358Z,14.78
2022-07-28T05:28:50.400Z,14.78
2022-07-28T05:29:51.735Z,14.61
2022-07-28T05:30:50.364Z,14.78
2022-07-28T05:31:50.449Z,14.89
2022-07-28T05:32:50.353Z,15.06
2022-07-28T05:33:50.353Z,15.06
2022-07-28T05:34:50.358Z,15.17
2022-07-28T05:35:50.355Z,15.61
2022-07-28T05:36:50.360Z,15.28
2022-07-28T05:37:50.384Z,15.06
2022-07-28T05:38:50.353Z,15.78
2022-07-28T05:39:50.367Z,15.61
2022-07-28T05:40:50.368Z,15.78
2022-07-28T05:41:50.360Z,16.06
2022-07-28T05:42:50.366Z,15.89
2022-07-28T05:43:50.366Z,16
2022-07-28T05:44:50.372Z,15.89
2022-07-28T05:45:50.430Z,15.78
2022-07-28T05:46:50.375Z,15.78
2022-07-28T05:47:50.372Z,15.44
2022-07-28T05:48:50.415Z,15.61
2022-07-28T05:49:50.380Z,15.61
2022-07-28T05:50:50.373Z,15.28
2022-07-28T05:51:50.375Z,15.44
2022-07-28T05:52:50.386Z,15.28
2022-07-28T05:53:50.381Z,15.44
2022-07-28T05:54:50.381Z,15.44
2022-07-28T05:55:57.706Z,15.28
2022-07-28T05:56:50.534Z,15.44
2022-07-28T05:57:50.386Z,15.44
2022-07-28T05:58:50.388Z,15.44
2022-07-28T05:59:50.388Z,15.61
2022-07-28T06:00:50.429Z,15.44
2022-07-28T06:01:50.447Z,15.78
2022-07-28T06:02:50.400Z,15.61
2022-07-28T06:03:58.385Z,15.44
2022-07-28T06:04:50.406Z,15.44
2022-07-28T06:05:58.510Z,15.61
2022-07-28T06:06:50.401Z,15.89
2022-07-28T06:07:50.395Z,15.89
2022-07-28T06:08:50.396Z,16.06
2022-07-28T06:09:50.399Z,16.22
2022-07-28T06:10:50.411Z,16.22
2022-07-28T06:11:50.876Z,16.56
2022-07-28T06:12:50.404Z,16.39
2022-07-28T06:13:50.422Z,16.39
2022-07-28T06:14:50.399Z,16.39
2022-07-28T06:15:50.412Z,16.39
2022-07-28T06:16:50.440Z,16.56
2022-07-28T06:17:50.410Z,16.72
2022-07-28T06:18:50.407Z,16.89
2022-07-28T06:19:50.420Z,17.17
2022-07-28T06:20:50.408Z,17.5
2022-07-28T06:21:50.412Z,17.67
2022-07-28T06:22:50.420Z,17
2022-07-28T06:23:50.405Z,16.39
2022-07-28T06:24:50.408Z,16.56
2022-07-28T06:25:50.405Z,16.89
2022-07-28T06:26:50.414Z,16.89
2022-07-28T06:27:50.418Z,16.56
2022-07-28T06:28:50.415Z,16.89
2022-07-28T06:29:50.419Z,16.39
2022-07-28T06:30:50.419Z,16.89
2022-07-28T06:31:50.502Z,17.67
2022-07-28T06:32:50.432Z,18.44
2022-07-28T06:33:50.423Z,18.94
2022-07-28T06:34:50.435Z,19.39
2022-07-28T06:35:51.166Z,19.56
2022-07-28T06:36:50.430Z,19.72
2022-07-28T06:37:50.428Z,19.44
2022-07-28T06:38:50.433Z,18.78
2022-07-28T06:39:50.434Z,18.61
2022-07-28T06:40:50.431Z,18.44
2022-07-28T06:41:50.424Z,17.83
2022-07-28T06:42:50.432Z,17.94
2022-07-28T06:43:50.439Z,18.28
2022-07-28T06:44:58.697Z,18.78
2022-07-28T06:45:50.442Z,19.06
2022-07-28T06:46:50.508Z,18.78
2022-07-28T06:47:50.445Z,19.06
2022-07-28T06:48:50.541Z,19.28
2022-07-28T06:49:50.445Z,19.44
2022-07-28T06:50:50.454Z,19.28
2022-07-28T06:51:50.451Z,19.44
2022-07-28T06:52:50.450Z,18.78
2022-07-28T06:53:50.447Z,18.78
2022-07-28T06:54:50.457Z,18.78
2022-07-28T06:55:50.461Z,19.44
2022-07-28T06:56:50.454Z,19.44
2022-07-28T06:57:50.454Z,19.56
2022-07-28T06:58:50.460Z,19.94
2022-07-28T06:59:50.460Z,19.94
2022-07-28T07:00:50.526Z,20.11
2022-07-28T07:01:50.458Z,20.33
2022-07-28T07:02:50.463Z,20.56
2022-07-28T07:03:50.493Z,20.11
2022-07-28T07:04:50.476Z,20.56
2022-07-28T07:05:51.693Z,20.22
2022-07-28T07:06:50.470Z,20.22
2022-07-28T07:07:50.469Z,21.22
2022-07-28T07:08:50.474Z,21.89
2022-07-28T07:09:50.487Z,22.39
2022-07-28T07:10:50.480Z,21.22
2022-07-28T07:11:50.478Z,20.72
2022-07-28T07:12:50.480Z,20.11
2022-07-28T07:13:50.488Z,20.11
2022-07-28T07:14:50.491Z,20.72
2022-07-28T07:15:50.565Z,21.72
2022-07-28T07:16:50.558Z,23.11
2022-07-28T07:17:50.493Z,22.78
2022-07-28T07:18:50.489Z,21.56
2022-07-28T07:19:50.500Z,20.33
2022-07-28T07:20:50.493Z,20.56
2022-07-28T07:21:50.493Z,20.33
2022-07-28T07:22:50.486Z,20.33
2022-07-28T07:23:50.499Z,20.11
2022-07-28T07:24:54.955Z,20.33
2022-07-28T07:25:50.513Z,21.39
2022-07-28T07:26:50.518Z,22.94
2022-07-28T07:27:50.519Z,22.56
2022-07-28T07:28:50.511Z,23.44
2022-07-28T07:29:50.506Z,22.94
2022-07-28T07:30:50.510Z,21.89
2022-07-28T07:31:52.620Z,21.22
2022-07-28T07:32:50.511Z,20.83
2022-07-28T07:33:50.517Z,20.33
2022-07-28T07:34:50.527Z,20.33
2022-07-28T07:35:50.522Z,19.56
2022-07-28T07:36:50.528Z,19.44
2022-07-28T07:37:50.517Z,19.06
2022-07-28T07:38:50.524Z,19.06
2022-07-28T07:39:50.519Z,19.06
2022-07-28T07:40:50.519Z,19.78
2022-07-28T07:41:50.531Z,20.22
2022-07-28T07:42:50.523Z,20.33
2022-07-28T07:43:50.534Z,20.72
2022-07-28T07:44:50.576Z,20.33
2022-07-28T07:45:50.520Z,20.56
2022-07-28T07:46:50.577Z,20.83
2022-07-28T07:47:50.537Z,20.83
2022-07-28T07:48:50.622Z,20.83
2022-07-28T07:49:50.533Z,20.83
2022-07-28T07:50:53.918Z,21.22
2022-07-28T07:51:50.533Z,21.39
2022-07-28T07:52:50.530Z,21
2022-07-28T07:53:50.534Z,21.56
2022-07-28T07:54:50.548Z,21.22
2022-07-28T07:55:50.541Z,20.56
2022-07-28T07:56:50.554Z,21
2022-07-28T07:57:50.550Z,20.83
2022-07-28T07:58:55.067Z,20.56
2022-07-28T07:59:50.539Z,20.83
2022-07-28T08:00:50.538Z,20.83
2022-07-28T08:01:50.605Z,21
2022-07-28T08:02:50.547Z,21.22
2022-07-28T08:03:50.548Z,21.39
2022-07-28T08:04:50.590Z,21.39
2022-07-28T08:05:50.548Z,21.56
2022-07-28T08:06:50.548Z,21.39
2022-07-28T08:07:50.542Z,21.56
2022-07-28T08:08:50.548Z,21.39
2022-07-28T08:09:50.555Z,20.56
2022-07-28T08:10:50.550Z,21.22
2022-07-28T08:11:50.566Z,21.39
2022-07-28T08:12:50.560Z,21.89
2022-07-28T08:13:50.557Z,22.06
2022-07-28T08:14:50.551Z,21.72
2022-07-28T08:15:50.606Z,20.83
2022-07-28T08:16:50.565Z,20.83
2022-07-28T08:17:50.564Z,20.72
2022-07-28T08:18:50.573Z,20.83
2022-07-28T08:19:50.571Z,20.72
2022-07-28T08:20:50.572Z,20.83
2022-07-28T08:21:50.574Z,21.72
2022-07-28T08:22:50.564Z,22.22
2022-07-28T08:23:50.564Z,22.56
2022-07-28T08:24:50.562Z,22.39
2022-07-28T08:25:50.559Z,21.89
2022-07-28T08:26:50.570Z,22.56
2022-07-28T08:27:50.573Z,22.78
2022-07-28T08:28:50.569Z,22.78
2022-07-28T08:29:50.565Z,22.94
2022-07-28T08:30:50.633Z,22.39
2022-07-28T08:31:50.669Z,21.72
2022-07-28T08:32:56.637Z,21.39
2022-07-28T08:33:53.128Z,20.83
2022-07-28T08:34:53.812Z,20.72
2022-07-28T08:35:50.581Z,20.56
2022-07-28T08:36:50.574Z,21
2022-07-28T08:37:50.574Z,21
2022-07-28T08:38:50.588Z,20.56
2022-07-28T08:39:50.583Z,20.72
2022-07-28T08:40:50.583Z,21.39
2022-07-28T08:41:50.580Z,21
2022-07-28T08:42:50.588Z,20.83
2022-07-28T08:43:50.589Z,21.39
2022-07-28T08:44:50.591Z,21.56
2022-07-28T08:45:53.681Z,21
2022-07-28T08:46:50.653Z,21.72
2022-07-28T08:48:07.599Z,21.39
2022-07-28T08:48:50.638Z,21.72
2022-07-28T08:49:50.602Z,21.39
2022-07-28T08:50:50.599Z,21.72
2022-07-28T08:51:50.610Z,21.22
2022-07-28T08:52:50.607Z,21
2022-07-28T08:53:50.600Z,21.39
2022-07-28T08:54:50.606Z,21.89
2022-07-28T08:55:50.601Z,20.83
2022-07-28T08:56:50.604Z,20.33
2022-07-28T08:57:50.602Z,20.11
2022-07-28T08:58:50.611Z,20.28
2022-07-28T08:59:50.606Z,20.89
2022-07-28T09:00:50.617Z,20.72
2022-07-28T09:01:54.083Z,20.94
2022-07-28T09:02:52.111Z,21.06
2022-07-28T09:03:50.613Z,21.06
2022-07-28T09:04:50.611Z,20.83
2022-07-28T09:05:50.611Z,20.83
2022-07-28T09:06:50.617Z,20.83
2022-07-28T09:07:54.344Z,22.06
2022-07-28T09:08:50.613Z,22.33
2022-07-28T09:09:50.612Z,22.83
2022-07-28T09:10:50.610Z,22.94
2022-07-28T09:11:50.609Z,23.11
2022-07-28T09:12:50.615Z,22.78
2022-07-28T09:13:53.835Z,23.11
2022-07-28T09:14:50.614Z,23.11
2022-07-28T09:15:50.691Z,22.22
2022-07-28T09:16:50.629Z,21.89
2022-07-28T09:17:50.616Z,21.56
2022-07-28T09:18:50.619Z,21.56
2022-07-28T09:19:50.618Z,22.06
2022-07-28T09:20:50.631Z,22.61
2022-07-28T09:21:50.624Z,22.22
2022-07-28T09:22:50.614Z,22.61
2022-07-28T09:23:50.620Z,22.22
2022-07-28T09:24:50.621Z,21.56
2022-07-28T09:25:50.628Z,21.39
2022-07-28T09:26:50.625Z,21.06
2022-07-28T09:27:50.625Z,21.06
2022-07-28T09:28:50.632Z,21.56
2022-07-28T09:29:50.621Z,21.56
2022-07-28T09:30:53.339Z,21.56
2022-07-28T09:31:55.535Z,23.11
2022-07-28T09:32:50.637Z,23.67
2022-07-28T09:33:50.625Z,23.28
2022-07-28T09:34:51.660Z,22.22
2022-07-28T09:35:50.635Z,21.89
2022-07-28T09:36:50.638Z,21.39
2022-07-28T09:37:50.626Z,21.72
2022-07-28T09:38:50.631Z,21.89
2022-07-28T09:39:50.631Z,22.39
2022-07-28T09:40:50.632Z,22.06
2022-07-28T09:41:50.629Z,22.78
2022-07-28T09:42:50.631Z,23.44
2022-07-28T09:43:54.723Z,24.17
2022-07-28T09:45:06.015Z,24.17
2022-07-28T09:45:50.632Z,24.17
2022-07-28T09:46:50.871Z,24.33
2022-07-28T09:47:50.798Z,24.33
2022-07-28T09:48:51.059Z,23.44
2022-07-28T09:49:50.731Z,23.44
2022-07-28T09:50:50.639Z,22.39
2022-07-28T09:51:50.646Z,23.44
2022-07-28T09:52:50.648Z,24.17
2022-07-28T09:53:50.641Z,24.17
2022-07-28T09:54:50.637Z,24.17
2022-07-28T09:55:50.636Z,24.67
2022-07-28T09:56:50.637Z,24.5
2022-07-28T09:57:50.637Z,24.17
2022-07-28T09:58:50.634Z,23.67
2022-07-28T09:59:55.240Z,23.11
2022-07-28T10:00:50.641Z,22.22
2022-07-28T10:01:50.671Z,22.06
2022-07-28T10:02:50.701Z,22.06
2022-07-28T10:03:50.644Z,21.89
2022-07-28T10:04:50.651Z,21.72
2022-07-28T10:05:53.763Z,21.72
2022-07-28T10:06:50.638Z,21.89
2022-07-28T10:07:50.649Z,21.72
2022-07-28T10:08:50.650Z,22.06
2022-07-28T10:09:50.658Z,22.78
2022-07-28T10:10:50.645Z,23.11
2022-07-28T10:11:50.654Z,22.94
2022-07-28T10:12:50.642Z,22.22
2022-07-28T10:13:50.647Z,22.06
2022-07-28T10:14:50.656Z,21.89
2022-07-28T10:15:51.215Z,21.56
2022-07-28T10:16:50.665Z,21.56
2022-07-28T10:17:50.662Z,22.06
2022-07-28T10:18:50.667Z,22.39
2022-07-28T10:19:50.660Z,22.61
2022-07-28T10:20:50.676Z,23.11
2022-07-28T10:21:50.664Z,22.61
2022-07-28T10:22:50.660Z,23.11
2022-07-28T10:23:50.668Z,23.11
2022-07-28T10:24:50.678Z,23.28
2022-07-28T10:25:50.670Z,24
2022-07-28T10:26:50.673Z,24.89
2022-07-28T10:27:50.672Z,25.06
2022-07-28T10:28:50.673Z,23.44
2022-07-28T10:29:50.679Z,22.61
2022-07-28T10:30:50.704Z,22.61
2022-07-28T10:31:50.693Z,23.11
2022-07-28T10:32:50.679Z,23.11
2022-07-28T10:33:50.681Z,22.94
2022-07-28T10:34:50.686Z,22.39
2022-07-28T10:35:54.990Z,23.11
2022-07-28T10:36:50.682Z,22.94
2022-07-28T10:37:50.679Z,22.61
2022-07-28T10:38:50.686Z,22.39
2022-07-28T10:39:50.679Z,23.11
2022-07-28T10:40:50.693Z,23.83
2022-07-28T10:41:50.690Z,24
2022-07-28T10:42:50.685Z,24.33
2022-07-28T10:43:50.701Z,24.5
2022-07-28T10:44:50.684Z,24.5
2022-07-28T10:46:07.645Z,23.83
2022-07-28T10:46:50.776Z,24.33
2022-07-28T10:47:50.691Z,25.22
2022-07-28T10:48:50.740Z,24.89
2022-07-28T10:49:50.686Z,25.06
2022-07-28T10:50:50.704Z,24.67
2022-07-28T10:52:15.314Z,24.5
2022-07-28T10:52:54.733Z,24.67
2022-07-28T10:53:50.708Z,24.06
2022-07-28T10:54:50.705Z,24.17
2022-07-28T10:55:50.700Z,24.67
2022-07-28T10:56:50.715Z,24.89
2022-07-28T10:58:01.906Z,25.22
2022-07-28T10:58:50.715Z,25.22
2022-07-28T10:59:53.204Z,25.39
2022-07-28T11:01:04.869Z,25.78
2022-07-28T11:01:50.919Z,26
2022-07-28T11:02:50.928Z,25.61
2022-07-28T11:03:50.922Z,25.61
2022-07-28T11:04:50.727Z,25.61
2022-07-28T11:05:50.732Z,25.06
2022-07-28T11:06:50.738Z,26
2022-07-28T11:07:50.741Z,26.56
2022-07-28T11:08:50.736Z,26.33
2022-07-28T11:09:50.745Z,26.17
2022-07-28T11:10:50.740Z,26.72
2022-07-28T11:11:50.737Z,26
2022-07-28T11:12:50.744Z,25.44
2022-07-28T11:13:50.738Z,25.22
2022-07-28T11:14:50.753Z,26
2022-07-28T11:15:50.750Z,25.61
2022-07-28T11:16:50.806Z,24.89
2022-07-28T11:17:50.755Z,25.06
2022-07-28T11:18:50.756Z,26
2022-07-28T11:20:01.046Z,26.33
2022-07-28T11:20:50.752Z,26.94
2022-07-28T11:21:52.880Z,27.94
2022-07-28T11:22:50.754Z,29.33
2022-07-28T11:23:50.765Z,29.33
2022-07-28T11:24:50.776Z,29.33
2022-07-28T11:25:50.764Z,29.17
2022-07-28T11:26:50.769Z,27.72
2022-07-28T11:27:51.106Z,26.72
2022-07-28T11:28:50.767Z,26
2022-07-28T11:29:50.767Z,26
2022-07-28T11:30:50.856Z,26.94
2022-07-28T11:31:50.778Z,26.94
2022-07-28T11:32:50.771Z,27.39
2022-07-28T11:33:50.774Z,27.17
2022-07-28T11:34:50.781Z,28.11
2022-07-28T11:35:50.770Z,28.72
2022-07-28T11:36:50.786Z,28.33
2022-07-28T11:37:50.786Z,27.72
2022-07-28T11:38:50.792Z,26
2022-07-28T11:39:50.781Z,25.44
2022-07-28T11:40:50.782Z,26.56
2022-07-28T11:41:50.782Z,26.72
2022-07-28T11:42:50.783Z,26.94
2022-07-28T11:43:50.789Z,25.78
2022-07-28T11:44:50.786Z,26
2022-07-28T11:45:55.705Z,25.44
2022-07-28T11:46:52.492Z,24.89
2022-07-28T11:47:50.793Z,24.89
2022-07-28T11:48:50.826Z,25.44
2022-07-28T11:49:50.800Z,26
2022-07-28T11:50:50.797Z,25.44
2022-07-28T11:51:51.196Z,25.61
2022-07-28T11:52:50.803Z,26.17
2022-07-28T11:53:50.805Z,27.17
2022-07-28T11:54:50.809Z,26.94
2022-07-28T11:55:55.955Z,25.78
2022-07-28T11:56:50.807Z,26
2022-07-28T11:57:53.760Z,25.44
2022-07-28T11:58:50.814Z,25.78
2022-07-28T11:59:50.809Z,26.33
2022-07-28T12:00:50.813Z,26.56
2022-07-28T12:01:50.810Z,26.56
2022-07-28T12:02:50.915Z,26.72
2022-07-28T12:03:54.358Z,26.89
2022-07-28T12:04:50.843Z,26.72
2022-07-28T12:05:50.814Z,26.89
2022-07-28T12:06:51.191Z,26.33
2022-07-28T12:07:50.820Z,25.78
2022-07-28T12:08:50.822Z,27.61
2022-07-28T12:09:50.829Z,28.11
2022-07-28T12:10:55.219Z,29.17
2022-07-28T12:11:50.829Z,29.33
2022-07-28T12:12:50.831Z,28.89
2022-07-28T12:13:50.833Z,28.89
2022-07-28T12:14:50.832Z,27.94
2022-07-28T12:15:50.834Z,27.72
2022-07-28T12:16:50.899Z,27.72
2022-07-28T12:17:50.837Z,28.33
2022-07-28T12:18:50.835Z,28.33
2022-07-28T12:19:50.833Z,28.56
2022-07-28T12:20:50.846Z,28.11
2022-07-28T12:21:50.843Z,28.11
2022-07-28T12:22:50.844Z,27.72
2022-07-28T12:23:50.845Z,27.94
2022-07-28T12:24:50.844Z,28.56
2022-07-28T12:25:50.859Z,28.89
2022-07-28T12:26:50.848Z,29.5
2022-07-28T12:27:50.847Z,29.5
2022-07-28T12:28:50.858Z,30.11
2022-07-28T12:29:50.858Z,30.11
2022-07-28T12:30:50.860Z,30.11
2022-07-28T12:31:50.910Z,30.11
2022-07-28T12:32:50.863Z,29.89
2022-07-28T12:33:50.860Z,30.11
2022-07-28T12:34:50.865Z,29.28
2022-07-28T12:35:50.858Z,28.33
2022-07-28T12:36:50.863Z,27.72
2022-07-28T12:37:50.864Z,27.5
2022-07-28T12:38:50.861Z,27.72
2022-07-28T12:39:50.862Z,28.56
2022-07-28T12:40:50.872Z,28.89
2022-07-28T12:41:50.862Z,29.5
2022-07-28T12:42:52.118Z,29.5
2022-07-28T12:43:50.869Z,29.5
2022-07-28T12:44:50.867Z,30.5
2022-07-28T12:45:50.936Z,30.72
2022-07-28T12:46:50.876Z,29.72
2022-07-28T12:47:50.877Z,30.89
2022-07-28T12:48:50.925Z,30.72
2022-07-28T12:49:53.750Z,28.33
2022-07-28T12:50:50.881Z,27.5
2022-07-28T12:51:50.880Z,27.72
2022-07-28T12:52:50.886Z,27.72
2022-07-28T12:53:50.880Z,27.94
2022-07-28T12:54:53.681Z,27.5
2022-07-28T12:55:50.890Z,27.72
2022-07-28T12:56:50.897Z,28.11
2022-07-28T12:57:51.708Z,28.33